createdAt,value
2022-11-17T00:02:18.824Z,67.76
2022-11-17T00:04:45.646Z,66.27
2022-11-17T00:07:12.698Z,67.45
2022-11-17T00:09:39.562Z,68.59
2022-11-17T00:12:29.772Z,69.38
2022-11-17T00:14:59.073Z,68.30
2022-11-17T00:17:25.937Z,67.74
2022-11-17T00:20:11.071Z,66.77
2022-11-17T00:22:37.695Z,67.07
2022-11-17T00:25:04.557Z,66.92
2022-11-17T00:27:31.093Z,67.03
2022-11-17T00:29:57.920Z,67.79
2022-11-17T00:32:42.906Z,67.10
2022-11-17T00:35:09.913Z,66.84
2022-11-17T00:37:38.845Z,68.02
2022-11-17T00:40:06.310Z,67.52
2022-11-17T00:42:33.153Z,67.77
2022-11-17T00:45:00.085Z,66.56
2022-11-17T00:47:26.675Z,67.34
2022-11-17T00:49:53.248Z,67.04
2022-11-17T00:52:19.827Z,66.67
2022-11-17T00:54:46.701Z,66.82
2022-11-17T00:57:13.305Z,66.46
2022-11-17T00:59:40.723Z,67.49
2022-11-17T01:02:07.268Z,66.92
2022-11-17T01:04:33.799Z,67.41
2022-11-17T01:07:00.723Z,67.97
2022-11-17T01:09:27.809Z,68.41
2022-11-17T01:11:54.375Z,68.63
2022-11-17T01:14:27.588Z,68.29
2022-11-17T01:16:54.710Z,68.88
2022-11-17T01:19:23.565Z,69.60
2022-11-17T01:21:50.165Z,69.26
2022-11-17T01:24:17.696Z,69.01
2022-11-17T01:26:45.774Z,69.98
2022-11-17T01:29:14.402Z,69.65
2022-11-17T01:31:43.477Z,69.62
2022-11-17T01:34:10.792Z,68.93
2022-11-17T01:36:59.210Z,69.12
2022-11-17T01:39:29.995Z,69.36
2022-11-17T01:41:57.984Z,68.59
2022-11-17T01:44:54.320Z,69.31
2022-11-17T01:47:30.407Z,70.00
2022-11-17T01:50:08.228Z,68.65
2022-11-17T01:52:39.036Z,68.95
2022-11-17T01:55:08.778Z,68.23
2022-11-17T01:57:44.987Z,68.01
2022-11-17T02:00:12.942Z,67.18
2022-11-17T02:02:42.028Z,68.89
2022-11-17T02:05:29.556Z,69.20
2022-11-17T02:07:59.876Z,69.60
2022-11-17T02:10:30.248Z,68.02
2022-11-17T02:12:57.353Z,69.79
2022-11-17T02:15:24.913Z,70.23
2022-11-17T02:17:52.418Z,69.16
2022-11-17T02:20:55.794Z,68.97
2022-11-17T02:23:37.241Z,68.57
2022-11-17T02:26:41.806Z,69.13
2022-11-17T02:29:22.841Z,68.39
2022-11-17T02:31:58.260Z,68.42
2022-11-17T02:34:47.805Z,68.31
2022-11-17T02:37:53.882Z,69.13
2022-11-17T02:40:31.357Z,69.17
2022-11-17T02:43:18.664Z,68.75
2022-11-17T02:45:51.308Z,69.22
2022-11-17T02:48:27.364Z,68.87
2022-11-17T02:50:55.514Z,67.78
2022-11-17T02:53:25.482Z,67.50
2022-11-17T02:55:53.757Z,66.92
2022-11-17T02:58:22.253Z,68.80
2022-11-17T03:01:10.852Z,67.46
2022-11-17T03:04:01.590Z,69.88
2022-11-17T03:06:35.887Z,70.31
2022-11-17T03:09:19.961Z,68.39
2022-11-17T03:11:59.184Z,69.80
2022-11-17T03:14:40.009Z,69.38
2022-11-17T03:17:19.566Z,68.90
2022-11-17T03:20:04.820Z,67.72
2022-11-17T03:22:50.449Z,67.29
2022-11-17T03:25:23.169Z,69.49
2022-11-17T03:27:56.415Z,70.40
2022-11-17T03:30:25.747Z,68.75
2022-11-17T03:32:58.695Z,68.76
2022-11-17T03:35:29.875Z,69.45
2022-11-17T03:38:04.090Z,68.52
2022-11-17T03:40:33.122Z,67.60
2022-11-17T03:43:05.242Z,67.98
2022-11-17T03:45:44.766Z,66.95
2022-11-17T03:48:18.538Z,68.85
2022-11-17T03:50:58.365Z,68.00
2022-11-17T03:53:25.084Z,67.25
2022-11-17T03:56:02.949Z,68.63
2022-11-17T03:58:33.265Z,68.34
2022-11-17T04:01:03.474Z,68.85
2022-11-17T04:03:32.578Z,68.46
2022-11-17T04:06:00.607Z,68.30
2022-11-17T04:08:31.650Z,69.64
2022-11-17T04:11:16.806Z,68.36
2022-11-17T04:14:03.223Z,69.97
2022-11-17T04:16:30.443Z,68.58
2022-11-17T04:18:58.862Z,68.46
2022-11-17T04:21:26.392Z,68.04
2022-11-17T04:23:53.679Z,68.92
2022-11-17T04:26:38.828Z,70.02
2022-11-17T04:29:05.851Z,68.64
2022-11-17T04:31:32.814Z,67.48
2022-11-17T04:34:01.503Z,67.93
2022-11-17T04:36:30.585Z,70.28
2022-11-17T04:38:59.356Z,70.58
2022-11-17T04:41:46.610Z,69.91
2022-11-17T04:44:14.970Z,70.71
2022-11-17T04:46:44.544Z,70.79
2022-11-17T04:49:11.994Z,69.73
2022-11-17T04:51:39.452Z,69.93
2022-11-17T04:54:08.635Z,70.28
2022-11-17T04:56:36.547Z,70.78
2022-11-17T04:59:04.831Z,70.26
2022-11-17T05:01:34.702Z,70.63
2022-11-17T05:04:03.822Z,70.60
2022-11-17T05:06:38.865Z,71.15
2022-11-17T05:09:07.862Z,70.94
2022-11-17T05:11:53.720Z,71.43
2022-11-17T05:14:22.782Z,70.34
2022-11-17T05:17:09.911Z,70.40
2022-11-17T05:19:41.238Z,69.69
2022-11-17T05:22:28.781Z,68.67
2022-11-17T05:24:57.816Z,71.17
2022-11-17T05:27:24.808Z,70.86
2022-11-17T05:29:51.858Z,70.15
2022-11-17T05:32:18.894Z,70.66
2022-11-17T05:34:45.898Z,70.41
2022-11-17T05:37:13.188Z,69.79
2022-11-17T05:39:40.041Z,70.21
2022-11-17T05:42:06.594Z,69.06
2022-11-17T05:44:33.651Z,71.36
2022-11-17T05:47:00.440Z,69.82
2022-11-17T05:49:27.512Z,69.82
2022-11-17T05:51:54.242Z,70.25
2022-11-17T05:54:20.873Z,70.15
2022-11-17T05:56:59.598Z,68.68
2022-11-17T05:59:47.936Z,69.42
2022-11-17T06:02:22.154Z,71.37
2022-11-17T06:04:50.154Z,69.98
2022-11-17T06:07:18.176Z,69.91
2022-11-17T06:09:46.233Z,70.49
2022-11-17T06:12:12.971Z,70.57
2022-11-17T06:14:39.764Z,70.38
2022-11-17T06:17:22.872Z,70.15
2022-11-17T06:20:05.979Z,70.21
2022-11-17T06:22:33.541Z,67.29
2022-11-17T06:25:02.814Z,70.01
2022-11-17T06:27:31.818Z,70.03
2022-11-17T06:30:01.628Z,69.44
2022-11-17T06:32:28.645Z,70.25
2022-11-17T06:34:56.619Z,70.58
2022-11-17T06:37:24.693Z,70.13
2022-11-17T06:39:51.617Z,70.38
2022-11-17T06:42:19.001Z,70.14
2022-11-17T06:44:45.761Z,68.96
2022-11-17T06:47:12.744Z,70.02
2022-11-17T06:49:39.288Z,70.13
2022-11-17T06:52:05.810Z,69.95
2022-11-17T06:54:32.651Z,70.96
2022-11-17T06:56:59.878Z,69.98
2022-11-17T06:59:26.640Z,70.71
2022-11-17T07:01:53.209Z,69.72
2022-11-17T07:04:19.727Z,69.93
2022-11-17T07:06:46.860Z,70.92
2022-11-17T07:09:13.561Z,70.37
2022-11-17T07:11:40.315Z,71.57
2022-11-17T07:14:07.147Z,70.39
2022-11-17T07:16:33.892Z,70.16
2022-11-17T07:19:03.322Z,70.26
2022-11-17T07:21:31.087Z,70.04
2022-11-17T07:23:58.291Z,67.12
2022-11-17T07:26:24.959Z,69.38
2022-11-17T07:28:51.587Z,70.25
2022-11-17T07:31:19.365Z,68.66
2022-11-17T07:33:46.564Z,68.99
2022-11-17T07:36:17.339Z,69.46
2022-11-17T07:38:43.956Z,69.70
2022-11-17T07:41:13.540Z,69.00
2022-11-17T07:43:40.576Z,71.01
2022-11-17T07:46:10.349Z,72.10
2022-11-17T07:48:40.241Z,71.97
2022-11-17T07:51:06.862Z,72.32
2022-11-17T07:53:35.057Z,73.01
2022-11-17T07:56:06.185Z,72.17
2022-11-17T07:58:33.565Z,71.51
2022-11-17T08:01:05.497Z,72.34
2022-11-17T08:03:32.169Z,71.64
2022-11-17T08:06:02.754Z,70.70
2022-11-17T08:08:29.915Z,70.25
2022-11-17T08:10:56.571Z,72.18
2022-11-17T08:13:24.187Z,71.61
2022-11-17T08:15:56.844Z,71.09
2022-11-17T08:18:23.643Z,72.66
2022-11-17T08:20:50.423Z,71.07
2022-11-17T08:23:17.202Z,73.04
2022-11-17T08:25:43.932Z,73.22
2022-11-17T08:28:10.559Z,73.31
2022-11-17T08:30:37.123Z,74.05
2022-11-17T08:33:04.054Z,73.49
2022-11-17T08:35:37.281Z,72.16
2022-11-17T08:38:04.488Z,72.69
2022-11-17T08:40:31.090Z,72.83
2022-11-17T08:43:01.713Z,72.62
2022-11-17T08:45:28.779Z,73.07
2022-11-17T08:47:58.499Z,72.71
2022-11-17T08:50:25.687Z,71.94
2022-11-17T08:52:53.233Z,72.35
2022-11-17T08:55:19.949Z,72.54
2022-11-17T08:57:47.131Z,72.70
2022-11-17T09:00:14.515Z,73.30
2022-11-17T09:02:41.053Z,73.25
2022-11-17T09:05:08.354Z,73.29
2022-11-17T09:07:35.734Z,74.01
2022-11-17T09:10:04.598Z,74.59
2022-11-17T09:12:31.246Z,75.97
2022-11-17T09:14:57.843Z,74.36
2022-11-17T09:17:24.886Z,73.57
2022-11-17T09:19:51.438Z,73.33
2022-11-17T09:22:19.714Z,71.60
2022-11-17T09:24:46.256Z,74.61
2022-11-17T09:27:13.838Z,73.70
2022-11-17T09:29:40.439Z,72.83
2022-11-17T09:32:06.995Z,73.00
2022-11-17T09:34:33.606Z,72.20
2022-11-17T09:37:00.557Z,74.01
2022-11-17T09:39:27.216Z,74.41
2022-11-17T09:41:56.183Z,72.85
2022-11-17T09:44:31.703Z,74.65
2022-11-17T09:47:18.766Z,74.28
2022-11-17T09:50:02.628Z,74.21
2022-11-17T09:52:36.891Z,73.25
2022-11-17T09:55:09.205Z,72.63
2022-11-17T09:57:41.979Z,73.38
2022-11-17T10:00:18.371Z,73.18
2022-11-17T10:02:45.340Z,73.03
2022-11-17T10:05:16.139Z,71.34
2022-11-17T10:07:49.483Z,73.16
2022-11-17T10:10:25.130Z,72.75
2022-11-17T10:12:57.175Z,72.97
2022-11-17T10:15:37.870Z,72.53
2022-11-17T10:18:12.403Z,73.60
2022-11-17T10:20:40.477Z,73.04
2022-11-17T10:23:12.201Z,71.11
2022-11-17T10:25:41.679Z,72.04
2022-11-17T10:28:24.585Z,72.04
2022-11-17T10:31:15.998Z,72.03
2022-11-17T10:33:45.432Z,72.58
2022-11-17T10:36:29.029Z,72.15
2022-11-17T10:38:58.106Z,71.42
2022-11-17T10:41:30.710Z,72.21
2022-11-17T10:44:04.605Z,73.80
2022-11-17T10:46:43.263Z,74.42
2022-11-17T10:49:25.018Z,74.65
2022-11-17T10:52:16.107Z,72.64
2022-11-17T10:54:43.280Z,73.18
2022-11-17T10:57:26.545Z,74.20
2022-11-17T10:59:57.626Z,72.98
2022-11-17T11:02:27.165Z,73.59
2022-11-17T11:05:07.861Z,72.58
2022-11-17T11:07:35.301Z,73.02
2022-11-17T11:10:15.049Z,72.81
2022-11-17T11:12:50.230Z,73.36
2022-11-17T11:15:21.566Z,73.43
2022-11-17T11:17:48.466Z,72.76
2022-11-17T11:20:17.769Z,74.08
2022-11-17T11:22:57.660Z,73.73
2022-11-17T11:25:40.737Z,73.72
2022-11-17T11:28:25.981Z,72.16
2022-11-17T11:31:10.297Z,73.33
2022-11-17T11:33:41.374Z,74.06
2022-11-17T11:36:50.040Z,74.01
2022-11-17T11:39:39.144Z,72.95
2022-11-17T11:42:24.541Z,72.53
2022-11-17T11:45:26.190Z,73.10
2022-11-17T11:48:17.199Z,71.07
2022-11-17T11:50:43.839Z,72.61
2022-11-17T11:53:22.241Z,73.44
2022-11-17T11:55:53.998Z,73.26
2022-11-17T11:58:24.755Z,72.51
2022-11-17T12:01:04.795Z,72.26
2022-11-17T12:03:36.408Z,74.05
2022-11-17T12:06:30.953Z,74.39
2022-11-17T12:09:08.486Z,72.41
2022-11-17T12:11:58.004Z,73.27
2022-11-17T12:14:25.004Z,73.89
2022-11-17T12:17:01.738Z,72.82
2022-11-17T12:19:55.262Z,72.44
2022-11-17T12:22:33.979Z,72.67
2022-11-17T12:25:03.993Z,73.06
2022-11-17T12:27:33.610Z,73.95
2022-11-17T12:30:04.601Z,72.48
2022-11-17T12:32:43.810Z,71.06
2022-11-17T12:35:26.771Z,72.65
2022-11-17T12:38:18.104Z,72.98
2022-11-17T12:40:49.681Z,71.67
2022-11-17T12:43:16.347Z,71.52
2022-11-17T12:45:57.847Z,71.25
2022-11-17T12:48:38.600Z,72.72
2022-11-17T12:51:14.287Z,70.87
2022-11-17T12:54:05.374Z,72.40
2022-11-17T12:57:00.903Z,71.70
2022-11-17T12:59:30.182Z,72.62
2022-11-17T13:02:18.728Z,71.88
2022-11-17T13:05:00.162Z,72.40
2022-11-17T13:07:27.402Z,72.70
2022-11-17T13:09:58.922Z,72.64
2022-11-17T13:12:30.731Z,71.77
2022-11-17T13:15:04.613Z,71.08
2022-11-17T13:17:55.140Z,71.46
2022-11-17T13:20:30.502Z,71.76
2022-11-17T13:23:09.298Z,72.76
2022-11-17T13:25:35.981Z,71.89
2022-11-17T13:28:05.250Z,71.49
2022-11-17T13:30:33.187Z,70.15
2022-11-17T13:33:03.091Z,69.61
2022-11-17T13:35:32.701Z,71.54
2022-11-17T13:38:11.491Z,72.64
2022-11-17T13:40:40.390Z,71.69
2022-11-17T13:43:12.817Z,72.66
2022-11-17T13:45:40.522Z,72.50
2022-11-17T13:48:34.166Z,71.21
2022-11-17T13:51:19.481Z,71.03
2022-11-17T13:53:56.943Z,70.79
2022-11-17T13:56:31.656Z,71.77
2022-11-17T13:59:01.104Z,71.08
2022-11-17T14:01:29.517Z,70.54
2022-11-17T14:04:31.659Z,71.75
2022-11-17T14:07:00.710Z,70.82
2022-11-17T14:09:30.616Z,71.59
2022-11-17T14:11:58.785Z,72.54
2022-11-17T14:14:44.929Z,72.35
2022-11-17T14:17:20.249Z,71.81
2022-11-17T14:19:47.802Z,72.00
2022-11-17T14:22:22.364Z,71.47
2022-11-17T14:24:51.914Z,72.58
2022-11-17T14:27:31.753Z,70.18
2022-11-17T14:29:58.539Z,71.24
2022-11-17T14:32:25.087Z,71.10
2022-11-17T14:34:51.883Z,71.17
2022-11-17T14:37:18.647Z,69.92
2022-11-17T14:39:45.191Z,69.18
2022-11-17T14:42:11.756Z,69.23
2022-11-17T14:44:38.365Z,69.87
2022-11-17T14:47:04.934Z,70.43
2022-11-17T14:49:31.826Z,70.28
2022-11-17T14:51:59.158Z,71.39
2022-11-17T14:54:26.309Z,71.44
2022-11-17T14:56:52.882Z,70.83
2022-11-17T14:59:19.786Z,71.62
2022-11-17T15:01:46.441Z,71.61
2022-11-17T15:04:48.226Z,71.75
2022-11-17T15:07:03.299Z,73.28
2022-11-17T15:09:31.357Z,71.25
2022-11-17T15:11:57.940Z,70.89
2022-11-17T15:14:24.626Z,71.13
2022-11-17T15:16:51.257Z,70.46
2022-11-17T15:19:17.837Z,68.99
2022-11-17T15:21:44.599Z,70.31
2022-11-17T15:24:11.149Z,69.77
2022-11-17T15:26:38.146Z,70.67
2022-11-17T15:29:04.930Z,71.40
2022-11-17T15:31:31.559Z,70.61
2022-11-17T15:33:58.193Z,71.18
2022-11-17T15:36:25.498Z,71.11
2022-11-17T15:38:53.300Z,71.50
2022-11-17T15:41:20.243Z,71.21
2022-11-17T15:43:46.831Z,70.59
2022-11-17T15:46:15.910Z,70.08
2022-11-17T15:48:44.460Z,70.31
2022-11-17T15:51:12.277Z,71.45
2022-11-17T15:53:39.520Z,71.21
2022-11-17T15:56:08.926Z,70.62
2022-11-17T15:58:36.146Z,71.30
2022-11-17T16:01:27.797Z,71.16
2022-11-17T16:04:00.816Z,71.68
2022-11-17T16:06:28.518Z,71.56
2022-11-17T16:08:55.362Z,71.39
2022-11-17T16:11:22.202Z,72.41
2022-11-17T16:13:52.043Z,71.23
2022-11-17T16:16:18.670Z,71.31
2022-11-17T16:18:45.229Z,70.55
2022-11-17T16:21:14.265Z,70.92
2022-11-17T16:23:47.750Z,70.49
2022-11-17T16:26:16.834Z,71.53
2022-11-17T16:28:43.494Z,71.01
2022-11-17T16:31:22.273Z,71.19
2022-11-17T16:33:50.720Z,71.24
2022-11-17T16:36:18.280Z,70.74
2022-11-17T16:39:02.318Z,73.09
2022-11-17T16:41:34.544Z,72.49
2022-11-17T16:44:01.691Z,71.32
2022-11-17T16:46:30.971Z,70.79
2022-11-17T16:49:02.238Z,69.60
2022-11-17T16:51:29.144Z,69.31
2022-11-17T16:53:58.194Z,71.43
2022-11-17T16:56:25.163Z,70.64
2022-11-17T16:58:52.463Z,70.58
2022-11-17T17:01:22.131Z,71.24
2022-11-17T17:03:48.714Z,70.18
2022-11-17T17:06:17.664Z,70.11
2022-11-17T17:08:44.940Z,69.89
2022-11-17T17:11:15.558Z,70.58
2022-11-17T17:13:42.748Z,71.22
2022-11-17T17:16:12.295Z,70.50
2022-11-17T17:18:39.906Z,70.37
2022-11-17T17:21:09.909Z,69.87
2022-11-17T17:23:36.716Z,69.07
2022-11-17T17:26:09.145Z,69.50
2022-11-17T17:28:37.085Z,70.17
2022-11-17T17:31:04.518Z,71.02
2022-11-17T17:33:32.466Z,70.08
2022-11-17T17:36:14.131Z,70.30
2022-11-17T17:38:41.943Z,69.76
2022-11-17T17:41:10.563Z,69.31
2022-11-17T17:43:37.857Z,70.35
2022-11-17T17:46:08.445Z,71.23
2022-11-17T17:48:39.949Z,69.27
2022-11-17T17:51:10.248Z,69.72
2022-11-17T17:53:37.440Z,69.43
2022-11-17T17:56:09.636Z,68.28
2022-11-17T17:58:40.525Z,70.00
2022-11-17T18:01:16.824Z,69.60
2022-11-17T18:03:46.304Z,69.87
2022-11-17T18:06:14.174Z,67.79
2022-11-17T18:08:41.641Z,68.66
2022-11-17T18:11:12.681Z,68.22
2022-11-17T18:13:41.613Z,69.74
2022-11-17T18:16:13.756Z,69.32
2022-11-17T18:18:42.027Z,67.93
2022-11-17T18:21:14.566Z,67.48
2022-11-17T18:23:41.526Z,69.29
2022-11-17T18:26:26.212Z,70.68
2022-11-17T18:29:01.214Z,69.17
2022-11-17T18:31:30.242Z,68.36
2022-11-17T18:33:59.400Z,69.69
2022-11-17T18:36:26.570Z,70.36
2022-11-17T18:38:53.199Z,68.72
2022-11-17T18:41:21.597Z,68.83
2022-11-17T18:43:48.517Z,69.96
2022-11-17T18:46:22.732Z,69.60
2022-11-17T18:48:51.776Z,69.53
2022-11-17T18:51:23.653Z,67.91
2022-11-17T18:53:51.759Z,68.30
2022-11-17T18:56:24.457Z,69.57
2022-11-17T18:58:51.625Z,69.64
2022-11-17T19:01:24.141Z,69.26
2022-11-17T19:03:53.439Z,69.53
2022-11-17T19:06:22.134Z,70.53
2022-11-17T19:08:49.864Z,69.12
2022-11-17T19:11:18.221Z,70.40
2022-11-17T19:13:45.670Z,70.07
2022-11-17T19:16:14.742Z,69.33
2022-11-17T19:18:43.498Z,69.18
2022-11-17T19:21:15.576Z,67.93
2022-11-17T19:23:50.797Z,67.96
2022-11-17T19:26:21.622Z,68.61
2022-11-17T19:28:48.770Z,67.94
2022-11-17T19:31:20.200Z,68.41
2022-11-17T19:33:48.163Z,67.44
2022-11-17T19:36:21.252Z,69.84
2022-11-17T19:38:50.098Z,69.98
2022-11-17T19:41:20.434Z,69.50
2022-11-17T19:43:47.745Z,69.10
2022-11-17T19:46:16.617Z,67.49
2022-11-17T19:48:44.396Z,68.44
2022-11-17T19:51:13.170Z,67.13
2022-11-17T19:53:40.894Z,67.49
2022-11-17T19:56:08.199Z,67.80
2022-11-17T19:58:35.505Z,68.62
2022-11-17T20:01:13.724Z,68.31
2022-11-17T20:03:41.666Z,67.48
2022-11-17T20:06:10.215Z,67.69
2022-11-17T20:08:37.171Z,67.64
2022-11-17T20:11:09.684Z,66.49
2022-11-17T20:13:37.135Z,66.28
2022-11-17T20:16:11.469Z,68.80
2022-11-17T20:18:38.722Z,67.89
2022-11-17T20:21:06.945Z,69.01
2022-11-17T20:23:34.814Z,68.42
2022-11-17T20:26:11.782Z,67.38
2022-11-17T20:28:39.414Z,66.74
2022-11-17T20:31:11.894Z,67.32
2022-11-17T20:33:40.394Z,67.35
2022-11-17T20:36:09.010Z,67.53
2022-11-17T20:38:36.065Z,68.32
2022-11-17T20:41:05.080Z,67.99
2022-11-17T20:43:32.860Z,66.92
2022-11-17T20:46:00.463Z,67.29
2022-11-17T20:48:28.983Z,67.60
2022-11-17T20:51:01.886Z,67.56
2022-11-17T20:53:29.094Z,66.97
2022-11-17T20:56:00.989Z,68.53
2022-11-17T20:58:28.779Z,68.74
2022-11-17T21:00:55.864Z,68.50
2022-11-17T21:03:23.525Z,68.11
2022-11-17T21:05:59.168Z,67.96
2022-11-17T21:08:28.716Z,68.74
2022-11-17T21:11:00.665Z,69.08
2022-11-17T21:13:28.112Z,69.66
2022-11-17T21:16:24.118Z,70.55
2022-11-17T21:18:50.986Z,70.59
2022-11-17T21:21:17.815Z,70.11
2022-11-17T21:23:44.670Z,68.91
2022-11-17T21:26:13.571Z,69.16
2022-11-17T21:28:41.715Z,69.39
2022-11-17T21:31:16.547Z,69.56
2022-11-17T21:33:44.779Z,70.94
2022-11-17T21:36:16.467Z,69.47
2022-11-17T21:38:46.759Z,68.18
2022-11-17T21:41:16.406Z,67.82
2022-11-17T21:43:45.524Z,67.85
2022-11-17T21:46:15.877Z,69.02
2022-11-17T21:48:42.962Z,68.99
2022-11-17T21:51:18.666Z,69.62
2022-11-17T21:54:06.834Z,69.03
2022-11-17T21:56:51.946Z,68.21
2022-11-17T21:59:19.093Z,69.09
2022-11-17T22:01:45.840Z,68.52
2022-11-17T22:04:13.142Z,69.72
2022-11-17T22:06:39.723Z,67.86
2022-11-17T22:09:07.375Z,66.39
2022-11-17T22:11:35.302Z,68.02
2022-11-17T22:14:07.207Z,68.00
2022-11-17T22:16:35.942Z,69.02
2022-11-17T22:19:03.041Z,69.25
2022-11-17T22:21:29.685Z,68.35
2022-11-17T22:23:56.509Z,68.63
2022-11-17T22:26:23.381Z,67.81
2022-11-17T22:28:52.119Z,68.92
2022-11-17T22:31:19.157Z,69.08
2022-11-17T22:33:46.716Z,70.35
2022-11-17T22:36:13.706Z,70.19
2022-11-17T22:38:40.264Z,68.50
2022-11-17T22:41:07.369Z,67.73
2022-11-17T22:43:34.291Z,69.23
2022-11-17T22:46:02.940Z,69.95
2022-11-17T22:48:29.665Z,69.91
2022-11-17T22:51:00.005Z,69.17
2022-11-17T22:53:27.428Z,68.96
2022-11-17T22:55:54.468Z,69.28
2022-11-17T22:58:21.192Z,70.19
2022-11-17T23:00:47.726Z,70.09
2022-11-17T23:03:14.331Z,69.67
2022-11-17T23:05:40.955Z,71.94
2022-11-17T23:08:09.968Z,70.67
2022-11-17T23:10:37.206Z,70.59
2022-11-17T23:13:04.168Z,69.90
2022-11-17T23:15:32.011Z,69.35
2022-11-17T23:17:58.980Z,69.27
2022-11-17T23:20:25.645Z,69.50
2022-11-17T23:22:53.979Z,69.31
2022-11-17T23:25:20.799Z,70.19
2022-11-17T23:27:48.174Z,69.80
2022-11-17T23:30:14.718Z,70.35
2022-11-17T23:32:41.670Z,69.00
2022-11-17T23:35:09.048Z,69.24
2022-11-17T23:37:35.607Z,67.80
2022-11-17T23:40:02.232Z,70.72
2022-11-17T23:42:32.392Z,70.68
2022-11-17T23:44:59.576Z,70.20
2022-11-17T23:47:26.221Z,67.89
2022-11-17T23:49:52.837Z,69.90
2022-11-17T23:52:19.820Z,69.98
2022-11-17T23:54:46.358Z,62.30
2022-11-17T23:57:12.877Z,56.94
2022-11-17T23:59:39.512Z,60.36
